createdAt,value
2019-05-06T00:02:04.588Z,100569.19
2019-05-06T00:04:35.394Z,100572.03
2019-05-06T00:07:07.043Z,100569.91
2019-05-06T00:09:37.677Z,100566.33
2019-05-06T00:12:08.517Z,100562.69
2019-05-06T00:14:39.270Z,100561.47
2019-05-06T00:17:10.017Z,100562.20
2019-05-06T00:19:40.938Z,100555.37
2019-05-06T00:22:14.062Z,100556.77
2019-05-06T00:24:45.651Z,100553.92
2019-05-06T00:27:17.880Z,100556.95
2019-05-06T00:29:48.858Z,100555.20
2019-05-06T00:32:19.608Z,100550.41
2019-05-06T00:34:54.617Z,100553.55
2019-05-06T00:37:25.581Z,100546.81
2019-05-06T00:40:01.113Z,100549.86
2019-05-06T00:42:34.668Z,100554.16
2019-05-06T00:45:07.909Z,100554.09
2019-05-06T00:47:38.317Z,100557.98
2019-05-06T00:50:10.229Z,100561.63
2019-05-06T00:52:42.035Z,100558.29
2019-05-06T00:55:13.724Z,100556.10
2019-05-06T00:57:44.624Z,100551.06
2019-05-06T01:00:17.966Z,100555.56
2019-05-06T01:02:49.076Z,100552.46
2019-05-06T01:05:20.518Z,100546.58
2019-05-06T01:07:51.354Z,100548.77
2019-05-06T01:10:23.809Z,100550.70
2019-05-06T01:13:05.517Z,100554.59
2019-05-06T01:15:36.148Z,100547.85
2019-05-06T01:18:08.830Z,100547.06
2019-05-06T01:20:42.008Z,100549.19
2019-05-06T01:23:14.350Z,100550.09
2019-05-06T01:25:45.829Z,100556.38
2019-05-06T01:28:17.029Z,100548.42
2019-05-06T01:30:48.009Z,100550.42
2019-05-06T01:33:18.723Z,100549.20
2019-05-06T01:35:51.016Z,100541.56
2019-05-06T01:38:29.219Z,100551.47
2019-05-06T01:41:04.348Z,100544.12
2019-05-06T01:43:43.866Z,100548.19
2019-05-06T01:46:15.445Z,100548.09
2019-05-06T01:48:48.662Z,100549.48
2019-05-06T01:51:21.491Z,100538.02
2019-05-06T01:53:54.183Z,100539.83
2019-05-06T01:56:24.623Z,100538.98
2019-05-06T01:58:55.558Z,100533.41
2019-05-06T02:01:26.499Z,100535.65
2019-05-06T02:03:57.241Z,100535.11
2019-05-06T02:06:28.170Z,100541.91
2019-05-06T02:08:59.013Z,100537.66
2019-05-06T02:11:30.553Z,100541.95
2019-05-06T02:14:01.042Z,100545.29
2019-05-06T02:16:34.107Z,100543.83
2019-05-06T02:19:04.696Z,100537.16
2019-05-06T02:21:43.908Z,100540.39
2019-05-06T02:24:24.307Z,100546.92
2019-05-06T02:26:55.006Z,100534.61
2019-05-06T02:29:43.500Z,100541.11
2019-05-06T02:32:35.807Z,100543.19
2019-05-06T02:35:26.474Z,100537.47
2019-05-06T02:37:58.258Z,100541.18
2019-05-06T02:40:33.011Z,100534.20
2019-05-06T02:43:03.464Z,100531.72
2019-05-06T02:45:34.554Z,100530.03
2019-05-06T02:48:07.843Z,100530.73
2019-05-06T02:50:46.204Z,100531.28
2019-05-06T02:53:18.629Z,100528.25
2019-05-06T02:55:53.175Z,100533.66
2019-05-06T02:58:24.057Z,100535.28
2019-05-06T03:00:55.543Z,100535.47
2019-05-06T03:03:26.373Z,100528.42
2019-05-06T03:05:57.206Z,100530.79
2019-05-06T03:08:28.041Z,100524.82
2019-05-06T03:10:59.108Z,100525.67
2019-05-06T03:13:29.843Z,100529.19
2019-05-06T03:16:05.384Z,100529.95
2019-05-06T03:18:35.297Z,100532.56
2019-05-06T03:21:25.984Z,100530.13
2019-05-06T03:24:04.026Z,100532.17
2019-05-06T03:26:35.934Z,100532.63
2019-05-06T03:29:06.464Z,100534.41
2019-05-06T03:31:37.590Z,100537.28
2019-05-06T03:34:35.575Z,100547.77
2019-05-06T03:36:48.037Z,100550.56
2019-05-06T03:39:13.930Z,100551.04
2019-05-06T03:41:44.942Z,100546.86
2019-05-06T03:44:16.922Z,100553.05
2019-05-06T03:47:07.230Z,100540.30
2019-05-06T03:49:51.307Z,100538.50
2019-05-06T03:52:23.393Z,100533.86
2019-05-06T03:54:56.279Z,100539.60
2019-05-06T03:57:29.217Z,100545.63
2019-05-06T04:00:04.311Z,100534.21
2019-05-06T04:02:33.779Z,100525.60
2019-05-06T04:05:05.710Z,100526.84
2019-05-06T04:07:36.848Z,100524.21
2019-05-06T04:10:07.838Z,100519.86
2019-05-06T04:12:38.993Z,100522.41
2019-05-06T04:15:14.206Z,100525.66
2019-05-06T04:17:53.838Z,100524.52
2019-05-06T04:20:28.208Z,100531.25
2019-05-06T04:23:13.568Z,100528.16
2019-05-06T04:25:55.660Z,100529.99
2019-05-06T04:28:28.744Z,100531.80
2019-05-06T04:30:59.472Z,100535.39
2019-05-06T04:33:33.133Z,100540.27
2019-05-06T04:36:03.629Z,100535.44
2019-05-06T04:38:36.396Z,100534.59
2019-05-06T04:41:07.119Z,100525.85
2019-05-06T04:43:38.155Z,100526.54
2019-05-06T04:46:09.419Z,100531.48
2019-05-06T04:48:40.031Z,100536.83
2019-05-06T04:51:13.726Z,100533.18
2019-05-06T04:53:44.885Z,100529.42
2019-05-06T04:56:16.933Z,100525.83
2019-05-06T04:58:49.660Z,100535.95
2019-05-06T05:01:23.184Z,100514.87
2019-05-06T05:03:55.687Z,100526.45
2019-05-06T05:06:26.762Z,100529.30
2019-05-06T05:08:58.072Z,100523.83
2019-05-06T05:11:33.400Z,100526.47
2019-05-06T05:14:25.599Z,100526.38
2019-05-06T05:17:03.113Z,100526.50
2019-05-06T05:19:34.097Z,100523.50
2019-05-06T05:22:09.416Z,100534.09
2019-05-06T05:24:42.380Z,100530.40
2019-05-06T05:27:12.932Z,100531.20
2019-05-06T05:29:43.784Z,100537.73
2019-05-06T05:32:15.477Z,100526.16
2019-05-06T05:34:46.866Z,100525.13
2019-05-06T05:37:17.801Z,100529.80
2019-05-06T05:39:49.381Z,100522.62
2019-05-06T05:42:22.238Z,100525.70
2019-05-06T05:44:54.217Z,100528.05
2019-05-06T05:47:25.137Z,100531.88
2019-05-06T05:50:10.437Z,100521.51
2019-05-06T05:52:43.702Z,100519.60
2019-05-06T05:55:15.973Z,100521.94
2019-05-06T05:57:51.996Z,100524.75
2019-05-06T06:00:24.607Z,100522.03
2019-05-06T06:02:55.952Z,100524.58
2019-05-06T06:05:26.480Z,100520.95
2019-05-06T06:07:58.909Z,100520.16
2019-05-06T06:10:43.416Z,100516.88
2019-05-06T06:13:14.264Z,100516.44
2019-05-06T06:15:49.492Z,100518.91
2019-05-06T06:18:43.097Z,100523.34
2019-05-06T06:21:25.667Z,100513.19
2019-05-06T06:23:52.935Z,100516.94
2019-05-06T06:26:24.975Z,100520.21
2019-05-06T06:28:59.270Z,100524.16
2019-05-06T06:31:35.170Z,100519.80
2019-05-06T06:34:09.425Z,100512.02
2019-05-06T06:36:43.701Z,100513.15
2019-05-06T06:39:19.075Z,100514.27
2019-05-06T06:41:51.940Z,100514.09
2019-05-06T06:44:32.938Z,100514.77
2019-05-06T06:47:03.357Z,100512.86
2019-05-06T06:49:34.898Z,100514.40
2019-05-06T06:52:11.189Z,100508.97
2019-05-06T06:54:38.956Z,100507.88
2019-05-06T06:57:17.646Z,100506.23
2019-05-06T06:59:53.044Z,100500.91
2019-05-06T07:02:25.697Z,100504.82
2019-05-06T07:05:02.416Z,100501.72
2019-05-06T07:07:43.449Z,100505.66
2019-05-06T07:10:12.029Z,100501.47
2019-05-06T07:12:42.766Z,100497.31
2019-05-06T07:15:13.876Z,100490.83
2019-05-06T07:17:45.001Z,100492.20
2019-05-06T07:20:22.892Z,100492.25
2019-05-06T07:22:53.742Z,100494.22
2019-05-06T07:25:24.586Z,100496.75
2019-05-06T07:27:56.745Z,100488.27
2019-05-06T07:30:35.256Z,100489.66
2019-05-06T07:33:06.124Z,100494.44
2019-05-06T07:35:41.076Z,100499.39
2019-05-06T07:38:13.073Z,100495.80
2019-05-06T07:40:45.056Z,100491.22
2019-05-06T07:43:29.608Z,100487.22
2019-05-06T07:46:02.510Z,100488.98
2019-05-06T07:48:33.544Z,100475.36
2019-05-06T07:51:08.972Z,100473.22
2019-05-06T07:53:42.669Z,100470.79
2019-05-06T07:56:43.134Z,100470.98
2019-05-06T07:59:13.993Z,100465.97
2019-05-06T08:01:45.125Z,100463.90
2019-05-06T08:08:03.542Z,100458.38
2019-05-06T08:10:34.367Z,100456.52
2019-05-06T08:13:04.994Z,100456.49
2019-05-06T08:15:36.827Z,100444.98
2019-05-06T08:18:07.580Z,100449.00
2019-05-06T08:23:56.074Z,100451.36
2019-05-06T08:26:26.867Z,100440.83
2019-05-06T08:28:59.341Z,100446.75
2019-05-06T08:31:29.914Z,100443.87
2019-05-06T08:34:02.628Z,100443.45
2019-05-06T08:36:35.278Z,100454.39
2019-05-06T08:39:08.004Z,100439.73
2019-05-06T08:41:38.737Z,100448.81
2019-05-06T08:44:09.981Z,100440.97
2019-05-06T08:46:43.205Z,100445.36
2019-05-06T08:49:13.391Z,100438.90
2019-05-06T08:51:46.614Z,100439.00
2019-05-06T08:54:33.912Z,100434.13
2019-05-06T08:57:04.762Z,100435.64
2019-05-06T08:59:35.477Z,100439.69
2019-05-06T09:02:07.609Z,100428.00
2019-05-06T09:04:38.179Z,100423.94
2019-05-06T09:07:09.109Z,100420.89
2019-05-06T09:09:41.983Z,100412.30
2019-05-06T09:12:14.565Z,100414.04
2019-05-06T09:14:46.937Z,100414.90
2019-05-06T09:17:17.770Z,100414.16
2019-05-06T09:19:48.639Z,100411.77
2019-05-06T09:22:20.564Z,100411.36
2019-05-06T09:24:53.081Z,100403.55
2019-05-06T09:27:42.307Z,100401.80
2019-05-06T09:30:14.600Z,100403.91
2019-05-06T09:32:45.201Z,100403.91
2019-05-06T09:35:16.244Z,100419.28
2019-05-06T09:37:47.180Z,100405.64
2019-05-06T09:40:18.019Z,100405.95
2019-05-06T09:42:49.159Z,100413.19
2019-05-06T09:45:19.794Z,100405.48
2019-05-06T09:47:55.055Z,100394.78
2019-05-06T09:50:38.159Z,100393.84
2019-05-06T09:53:12.955Z,100392.92
2019-05-06T09:55:44.227Z,100386.22
2019-05-06T09:58:14.871Z,100390.07
2019-05-06T10:00:50.096Z,100389.38
2019-05-06T10:03:22.629Z,100390.10
2019-05-06T10:05:53.719Z,100396.70
2019-05-06T10:08:24.551Z,100386.98
2019-05-06T10:10:59.465Z,100385.13
2019-05-06T10:13:27.883Z,100379.42
2019-05-06T10:15:58.546Z,100378.95
2019-05-06T10:18:29.896Z,100383.03
2019-05-06T10:21:00.598Z,100380.41
2019-05-06T10:23:32.819Z,100374.89
2019-05-06T10:26:06.339Z,100372.28
2019-05-06T10:28:55.164Z,100377.16
2019-05-06T10:31:26.133Z,100378.95
2019-05-06T10:33:58.133Z,100379.90
2019-05-06T10:36:33.431Z,100371.73
2019-05-06T10:39:10.011Z,100366.03
2019-05-06T10:41:43.643Z,100369.47
2019-05-06T10:44:17.301Z,100370.05
2019-05-06T10:46:48.586Z,100367.45
2019-05-06T10:49:22.540Z,100365.66
2019-05-06T10:51:54.126Z,100366.48
2019-05-06T10:54:25.154Z,100366.53
2019-05-06T10:57:12.636Z,100369.21
2019-05-06T10:59:45.041Z,100361.52
2019-05-06T11:02:28.069Z,100362.84
2019-05-06T11:05:02.526Z,100362.58
2019-05-06T11:07:35.255Z,100353.23
2019-05-06T11:10:06.504Z,100354.88
2019-05-06T11:12:37.645Z,100346.33
2019-05-06T11:15:08.655Z,100342.17
2019-05-06T11:17:39.426Z,100341.72
2019-05-06T11:20:13.932Z,100341.25
2019-05-06T11:22:44.513Z,100327.64
2019-05-06T11:25:15.409Z,100334.01
2019-05-06T11:27:46.067Z,100327.95
2019-05-06T11:30:18.817Z,100325.16
2019-05-06T11:32:50.992Z,100328.27
2019-05-06T11:35:33.492Z,100317.02
2019-05-06T11:38:05.659Z,100316.37
2019-05-06T11:40:36.902Z,100315.06
2019-05-06T11:43:07.659Z,100314.36
2019-05-06T11:45:38.579Z,100303.72
2019-05-06T11:48:09.311Z,100319.00
2019-05-06T11:50:42.758Z,100320.00
2019-05-06T11:53:13.947Z,100318.10
2019-05-06T11:55:46.173Z,100310.14
2019-05-06T11:58:34.989Z,100302.89
2019-05-06T12:01:16.849Z,100298.02
2019-05-06T12:03:47.700Z,100298.11
2019-05-06T12:06:22.482Z,100295.52
2019-05-06T12:08:53.482Z,100295.02
2019-05-06T12:11:24.002Z,100292.64
2019-05-06T12:13:54.828Z,100296.38
2019-05-06T12:16:26.429Z,100300.43
2019-05-06T12:18:59.728Z,100291.80
2019-05-06T12:21:29.586Z,100296.42
2019-05-06T12:24:02.912Z,100289.05
2019-05-06T12:26:32.965Z,100281.10
2019-05-06T12:29:03.944Z,100282.88
2019-05-06T12:31:35.487Z,100274.21
2019-05-06T12:34:06.255Z,100273.37
2019-05-06T12:36:36.851Z,100268.84
2019-05-06T12:39:17.440Z,100265.02
2019-05-06T12:42:06.090Z,100279.94
2019-05-06T12:44:38.746Z,100273.36
2019-05-06T12:47:22.993Z,100276.13
2019-05-06T12:49:53.775Z,100266.58
2019-05-06T12:52:25.481Z,100258.27
2019-05-06T12:55:16.376Z,100259.66
2019-05-06T12:57:29.198Z,100252.80
2019-05-06T12:59:59.833Z,100257.91
2019-05-06T13:02:32.803Z,100253.77
2019-05-06T13:05:04.235Z,100255.92
2019-05-06T13:07:43.655Z,100251.11
2019-05-06T13:10:18.342Z,100252.11
2019-05-06T13:12:50.394Z,100249.09
2019-05-06T13:15:24.325Z,100249.82
2019-05-06T13:17:56.054Z,100253.52
2019-05-06T13:20:29.012Z,100248.53
2019-05-06T13:23:07.467Z,100246.77
2019-05-06T13:25:33.585Z,100246.00
2019-05-06T13:28:05.972Z,100244.44
2019-05-06T13:30:36.842Z,100247.79
2019-05-06T13:33:25.839Z,100241.45
2019-05-06T13:35:56.714Z,100239.12
2019-05-06T13:38:27.525Z,100228.89
2019-05-06T13:40:57.892Z,100228.86
2019-05-06T13:43:36.017Z,100225.02
2019-05-06T13:46:18.962Z,100223.84
2019-05-06T13:49:03.314Z,100222.58
2019-05-06T13:51:38.765Z,100229.58
2019-05-06T13:54:13.641Z,100218.94
2019-05-06T13:56:43.198Z,100217.30
2019-05-06T13:59:14.547Z,100217.02
2019-05-06T14:01:46.721Z,100215.26
2019-05-06T14:04:17.856Z,100220.02
2019-05-06T14:06:49.826Z,100212.53
2019-05-06T14:09:29.553Z,100207.58
2019-05-06T14:11:52.759Z,100212.02
2019-05-06T14:14:23.671Z,100206.41
2019-05-06T14:16:54.505Z,100204.27
2019-05-06T14:19:25.425Z,100205.63
2019-05-06T14:21:56.363Z,100207.55
2019-05-06T14:24:27.415Z,100202.20
2019-05-06T14:27:02.731Z,100201.77
2019-05-06T14:29:53.417Z,100195.23
2019-05-06T14:32:24.303Z,100197.52
2019-05-06T14:34:55.321Z,100192.11
2019-05-06T14:37:26.029Z,100196.27
2019-05-06T14:39:59.640Z,100196.45
2019-05-06T14:42:29.807Z,100192.91
2019-05-06T14:45:01.080Z,100189.22
2019-05-06T14:47:42.715Z,100186.95
2019-05-06T14:50:16.421Z,100181.69
2019-05-06T14:52:48.164Z,100179.28
2019-05-06T14:55:22.583Z,100175.86
2019-05-06T14:57:53.870Z,100161.84
2019-05-06T15:00:25.862Z,100158.98
2019-05-06T15:03:02.182Z,100159.59
2019-05-06T15:05:36.091Z,100166.56
2019-05-06T15:08:06.278Z,100161.66
2019-05-06T15:10:39.175Z,100160.26
2019-05-06T15:13:12.500Z,100159.41
2019-05-06T15:15:43.040Z,100156.84
2019-05-06T15:18:13.894Z,100157.20
2019-05-06T15:20:44.965Z,100154.05
2019-05-06T15:23:15.794Z,100152.70
2019-05-06T15:25:46.729Z,100151.94
2019-05-06T15:28:22.591Z,100150.58
2019-05-06T15:31:12.335Z,100147.59
2019-05-06T15:33:46.889Z,100153.95
2019-05-06T15:36:19.364Z,100147.42
2019-05-06T15:38:52.626Z,100146.83
2019-05-06T15:41:22.767Z,100146.41
2019-05-06T15:43:53.650Z,100138.55
2019-05-06T15:46:24.344Z,100146.35
2019-05-06T15:48:55.376Z,100142.59
2019-05-06T15:51:34.922Z,100139.61
2019-05-06T15:54:06.404Z,100142.23
2019-05-06T15:56:36.893Z,100140.05
2019-05-06T15:59:08.034Z,100146.77
2019-05-06T16:01:39.273Z,100141.50
2019-05-06T16:04:12.128Z,100141.83
2019-05-06T16:06:44.710Z,100131.90
2019-05-06T16:09:14.713Z,100133.83
2019-05-06T16:11:45.689Z,100136.96
2019-05-06T16:14:16.624Z,100134.42
2019-05-06T16:16:47.369Z,100125.73
2019-05-06T16:19:18.504Z,100132.07
2019-05-06T16:21:52.111Z,100131.00
2019-05-06T16:24:23.608Z,100128.50
2019-05-06T16:26:56.096Z,100128.44
2019-05-06T16:29:37.303Z,100121.14
2019-05-06T16:32:09.395Z,100123.23
2019-05-06T16:34:39.899Z,100131.39
2019-05-06T16:37:12.586Z,100132.37
2019-05-06T16:39:43.303Z,100127.72
2019-05-06T16:42:14.039Z,100127.16
2019-05-06T16:44:45.412Z,100129.63
2019-05-06T16:47:17.858Z,100129.64
2019-05-06T16:49:48.792Z,100132.23
2019-05-06T16:52:19.631Z,100130.81
2019-05-06T16:54:52.194Z,100130.36
2019-05-06T16:57:23.282Z,100130.92
2019-05-06T16:59:53.877Z,100131.05
2019-05-06T17:02:26.667Z,100129.84
2019-05-06T17:05:05.176Z,100133.30
2019-05-06T17:07:36.217Z,100123.50
2019-05-06T17:10:07.181Z,100135.13
2019-05-06T17:12:37.702Z,100130.17
2019-05-06T17:15:09.327Z,100132.73
2019-05-06T17:17:44.436Z,100130.25
2019-05-06T17:20:12.911Z,100126.96
2019-05-06T17:22:43.392Z,100127.01
2019-05-06T17:25:14.818Z,100135.50
2019-05-06T17:27:48.521Z,100137.73
2019-05-06T17:30:22.535Z,100149.30
2019-05-06T17:32:55.085Z,100143.41
2019-05-06T17:35:25.942Z,100134.15
2019-05-06T17:37:58.390Z,100147.68
2019-05-06T17:40:29.459Z,100141.81
2019-05-06T17:43:03.268Z,100144.91
2019-05-06T17:46:01.165Z,100143.81
2019-05-06T17:48:38.209Z,100147.21
2019-05-06T17:51:13.071Z,100149.47
2019-05-06T17:53:49.105Z,100146.95
2019-05-06T17:56:22.097Z,100144.16
2019-05-06T17:58:53.196Z,100141.91
2019-05-06T18:01:32.623Z,100145.84
2019-05-06T18:04:03.804Z,100144.42
2019-05-06T18:06:35.049Z,100142.72
2019-05-06T18:09:08.573Z,100146.97
2019-05-06T18:11:42.390Z,100143.30
2019-05-06T18:14:14.102Z,100145.55
2019-05-06T18:16:45.166Z,100144.41
2019-05-06T18:19:16.177Z,100141.87
2019-05-06T18:21:47.221Z,100148.08
2019-05-06T18:24:17.959Z,100140.46
2019-05-06T18:26:49.616Z,100144.12
2019-05-06T18:29:22.201Z,100148.59
2019-05-06T18:31:52.788Z,100153.09
2019-05-06T18:34:24.056Z,100144.91
2019-05-06T18:36:56.360Z,100148.84
2019-05-06T18:39:27.264Z,100147.44
2019-05-06T18:42:12.430Z,100144.00
2019-05-06T18:44:33.124Z,100140.06
2019-05-06T18:47:03.011Z,100148.45
2019-05-06T18:49:36.413Z,100142.27
2019-05-06T18:52:07.088Z,100139.45
2019-05-06T18:54:37.902Z,100139.13
2019-05-06T18:57:08.519Z,100145.58
2019-05-06T18:59:42.471Z,100144.97
2019-05-06T19:02:13.332Z,100143.27
2019-05-06T19:04:45.431Z,100144.06
2019-05-06T19:07:17.147Z,100144.89
2019-05-06T19:09:52.194Z,100140.07
2019-05-06T19:12:31.861Z,100141.73
2019-05-06T19:14:54.923Z,100144.77
2019-05-06T19:17:26.259Z,100142.52
2019-05-06T19:19:58.436Z,100134.35
2019-05-06T19:22:29.108Z,100136.59
2019-05-06T19:25:02.463Z,100135.66
2019-05-06T19:27:33.402Z,100139.84
2019-05-06T19:30:07.003Z,100133.67
2019-05-06T19:32:38.141Z,100134.78
2019-05-06T19:35:13.195Z,100136.98
2019-05-06T19:37:45.761Z,100138.09
2019-05-06T19:40:16.585Z,100139.21
2019-05-06T19:42:50.141Z,100136.39
2019-05-06T19:45:22.459Z,100129.95
2019-05-06T19:47:52.977Z,100131.91
2019-05-06T19:50:26.069Z,100133.05
2019-05-06T19:52:57.208Z,100136.97
2019-05-06T19:55:27.842Z,100129.97
2019-05-06T19:57:59.496Z,100134.74
2019-05-06T20:00:32.464Z,100134.47
2019-05-06T20:03:04.313Z,100133.11
2019-05-06T20:05:42.546Z,100137.31
2019-05-06T20:08:15.327Z,100134.23
2019-05-06T20:10:56.898Z,100129.13
2019-05-06T20:13:29.387Z,100135.58
2019-05-06T20:16:02.257Z,100135.03
2019-05-06T20:18:33.006Z,100138.16
2019-05-06T20:21:04.046Z,100128.02
2019-05-06T20:23:34.672Z,100131.08
2019-05-06T20:26:05.716Z,100132.69
2019-05-06T20:28:37.158Z,100135.48
2019-05-06T20:31:07.695Z,100136.61
2019-05-06T20:33:38.451Z,100137.72
2019-05-06T20:36:09.105Z,100133.81
2019-05-06T20:38:42.353Z,100142.00
2019-05-06T20:41:13.386Z,100136.67
2019-05-06T20:43:44.632Z,100141.10
2019-05-06T20:46:15.780Z,100141.38
2019-05-06T20:48:46.627Z,100141.70
2019-05-06T20:51:21.948Z,100144.55
2019-05-06T20:53:52.695Z,100145.13
2019-05-06T20:56:23.726Z,100150.22
2019-05-06T20:58:56.393Z,100149.34
2019-05-06T21:01:27.740Z,100148.53
2019-05-06T21:03:58.780Z,100148.25
2019-05-06T21:06:29.614Z,100151.34
2019-05-06T21:09:02.136Z,100152.41
2019-05-06T21:11:32.739Z,100145.13
2019-05-06T21:14:03.559Z,100140.92
2019-05-06T21:16:34.548Z,100142.37
2019-05-06T21:19:06.962Z,100139.28
2019-05-06T21:21:37.610Z,100134.25
2019-05-06T21:24:08.546Z,100124.14
2019-05-06T21:26:39.375Z,100123.88
2019-05-06T21:29:10.098Z,100116.84
2019-05-06T21:31:42.303Z,100117.98
2019-05-06T21:34:13.000Z,100116.00
2019-05-06T21:36:43.938Z,100110.68
2019-05-06T21:39:14.972Z,100110.95
2019-05-06T21:41:45.604Z,100105.58
2019-05-06T21:44:16.438Z,100104.77
2019-05-06T21:46:47.173Z,100109.78
2019-05-06T21:49:19.428Z,100110.63
2019-05-06T21:51:49.867Z,100104.44
2019-05-06T21:54:23.020Z,100100.52
2019-05-06T21:56:53.353Z,100106.67
2019-05-06T21:59:24.114Z,100099.38
2019-05-06T22:01:55.273Z,100104.64
2019-05-06T22:04:25.987Z,100108.00
2019-05-06T22:06:56.850Z,100107.71
2019-05-06T22:09:27.519Z,100101.81
2019-05-06T22:11:58.798Z,100106.57
2019-05-06T22:14:29.425Z,100101.19
2019-05-06T22:17:03.900Z,100100.62
2019-05-06T22:19:32.322Z,100102.30
2019-05-06T22:22:07.675Z,100100.05
2019-05-06T22:24:48.635Z,100098.91
2019-05-06T22:27:19.473Z,100095.25
2019-05-06T22:29:52.247Z,100100.02
2019-05-06T22:32:23.787Z,100089.92
2019-05-06T22:34:54.327Z,100098.60
2019-05-06T22:37:25.165Z,100095.47
2019-05-06T22:39:56.000Z,100096.86
2019-05-06T22:42:28.696Z,100099.09
2019-05-06T22:44:59.399Z,100099.07
2019-05-06T22:47:32.381Z,100097.09
2019-05-06T22:50:03.863Z,100097.41
2019-05-06T22:52:36.320Z,100098.53
2019-05-06T22:55:07.793Z,100101.08
2019-05-06T22:57:38.499Z,100104.21
2019-05-06T23:00:12.190Z,100108.09
2019-05-06T23:02:44.677Z,100108.05
2019-05-06T23:05:15.712Z,100100.22
2019-05-06T23:07:46.552Z,100104.73
2019-05-06T23:10:17.283Z,100103.66
2019-05-06T23:12:47.708Z,100103.03
2019-05-06T23:15:18.634Z,100102.45
2019-05-06T23:17:52.675Z,100099.36
2019-05-06T23:20:24.466Z,100098.45
2019-05-06T23:22:55.548Z,100098.16
2019-05-06T23:25:26.284Z,100096.49
2019-05-06T23:27:57.225Z,100099.01
2019-05-06T23:30:27.748Z,100080.28
2019-05-06T23:32:58.293Z,100077.48
2019-05-06T23:35:29.010Z,100075.25
2019-05-06T23:38:35.710Z,100070.20
2019-05-06T23:41:43.194Z,100074.13
2019-05-06T23:44:54.518Z,100066.51
2019-05-06T23:47:59.428Z,100071.27
2019-05-06T23:51:06.478Z,100067.89
2019-05-06T23:54:13.885Z,100063.97
2019-05-06T23:56:46.821Z,100075.98
2019-05-06T23:59:18.821Z,100073.97
